Time;durP1;ratioP1;P1;durP2;ratioP2;P2;SDS_P1;SDS_P2;PMS_P1;PMS_P2;Temp;Humidity;BMP_temperature;BMP_pressure;BME280_temperature;BME280_humidity;BME280_pressure;Samples;Min_cycle;Max_cycle;Signal;HPM_P1;HPM_P2
2021/12/22 00:00:48;;;;;;;41.57;17.07;;;;;;;-5.89;100.00;102390.91;2091319;28;20096;-70
2021/12/22 00:01:50;;;;;;;37.93;18.43;;;;;;;-5.89;100.00;102394.31;2091299;28;20047;-69
2021/12/22 00:02:50;;;;;;;34.63;18.23;;;;;;;-5.89;100.00;102389.22;2091271;28;20028;-69
2021/12/22 00:03:52;;;;;;;36.70;18.23;;;;;;;-5.88;100.00;102392.66;2091210;28;20052;-70
2021/12/22 00:04:54;;;;;;;;;;;;;;;-5.88;100.00;102391.00;2091008;28;20099;-69
2021/12/22 00:05:54;;;;;;;37.38;16.60;;;;;;;-5.90;100.00;102397.66;2090726;28;19909;-70
2021/12/22 00:06:54;;;;;;;40.70;16.30;;;;;;;-5.88;100.00;102395.19;2091138;28;20068;-70
2021/12/22 00:07:55;;;;;;;37.30;17.83;;;;;;;-5.85;100.00;102395.38;2091220;28;20033;-70
2021/12/22 00:08:55;;;;;;;41.70;17.43;;;;;;;-5.81;100.00;102397.25;2091140;28;20048;-69
2021/12/22 00:09:55;;;;;;;34.10;15.87;;;;;;;-5.76;100.00;102400.91;2091296;28;20029;-69
2021/12/22 00:10:56;;;;;;;36.97;16.77;;;;;;;-5.71;100.00;102399.44;2091213;28;20096;-70
2021/12/22 00:11:56;;;;;;;41.22;18.38;;;;;;;-5.67;100.00;102400.50;2091237;28;20291;-70
2021/12/22 00:12:57;;;;;;;39.37;17.90;;;;;;;-5.70;100.00;102400.34;2091112;28;20037;-70
2021/12/22 00:13:57;;;;;;;40.20;18.47;;;;;;;-5.76;100.00;102400.00;2091089;28;20105;-69
2021/12/22 00:14:57;;;;;;;33.83;17.50;;;;;;;-5.81;100.00;102399.81;2090560;28;20021;-69
2021/12/22 00:15:57;;;;;;;43.67;19.47;;;;;;;-5.84;100.00;102402.19;2090501;28;20052;-71
2021/12/22 00:16:58;;;;;;;37.43;17.10;;;;;;;-5.89;100.00;102393.47;2090647;28;20510;-70
2021/12/22 00:17:58;;;;;;;36.87;16.73;;;;;;;-5.93;100.00;102394.97;2091141;28;20111;-70
2021/12/22 00:18:59;;;;;;;41.20;18.33;;;;;;;-5.96;100.00;102402.41;2091221;28;20074;-70
2021/12/22 00:19:59;;;;;;;39.90;18.15;;;;;;;-5.97;100.00;102393.94;2090570;28;20037;-70
2021/12/22 00:21:00;;;;;;;38.30;19.10;;;;;;;-5.97;100.00;102396.47;2090581;28;20052;-70
2021/12/22 00:22:01;;;;;;;36.90;18.08;;;;;;;-5.97;100.00;102393.94;2091152;28;20490;-70
2021/12/22 00:23:01;;;;;;;32.92;17.83;;;;;;;-5.97;100.00;102400.69;2091118;28;20044;-72
2021/12/22 00:24:02;;;;;;;34.63;17.00;;;;;;;-5.98;100.00;102398.94;2091215;28;20039;-70
2021/12/22 00:25:03;;;;;;;36.37;17.67;;;;;;;-5.98;100.00;102388.78;2091103;28;20485;-70
2021/12/22 00:26:04;;;;;;;42.72;19.10;;;;;;;-6.00;100.00;102396.31;2091185;28;20280;-70
2021/12/22 00:27:04;;;;;;;36.53;18.23;;;;;;;-6.03;100.00;102396.16;2097503;28;20047;-70
2021/12/22 00:28:05;;;;;;;34.10;17.57;;;;;;;-6.06;100.00;102396.03;2098807;28;20044;-70
2021/12/22 00:29:06;;;;;;;38.13;18.00;;;;;;;-6.09;100.00;102396.75;2098703;28;20323;-70
2021/12/22 00:30:08;;;;;;;37.35;18.42;;;;;;;-6.10;100.00;102401.75;2107104;28;20480;-70
2021/12/22 00:31:13;;;;;;;;;;;;;;;-6.10;100.00;102397.56;2108057;28;20023;-70
2021/12/22 00:32:16;;;;;;;36.33;15.45;;;;;;;-6.11;100.00;102397.47;2107723;28;19907;-70
2021/12/22 00:33:17;;;;;;;38.45;18.15;;;;;;;-6.10;100.00;102396.66;2107675;28;20462;-70
2021/12/22 00:34:17;;;;;;;37.40;18.55;;;;;;;-6.12;100.00;102399.13;2107541;28;20492;-69
2021/12/22 00:35:21;;;;;;;39.07;17.70;;;;;;;-6.13;100.00;102394.00;2107652;28;20020;-69
2021/12/22 00:36:23;;;;;;;38.22;17.98;;;;;;;-6.11;100.00;102397.47;2107626;28;20393;-70
2021/12/22 00:37:28;;;;;;;37.50;17.80;;;;;;;-6.11;100.00;102397.47;2098500;28;20032;-70
2021/12/22 00:38:28;;;;;;;35.90;17.30;;;;;;;-6.14;100.00;102398.19;2099309;28;20104;-70
2021/12/22 00:39:29;;;;;;;38.00;16.97;;;;;;;-6.18;100.00;102391.19;2107603;28;20046;-69
2021/12/22 00:40:29;;;;;;;37.90;16.73;;;;;;;-6.19;100.00;102396.19;2107668;28;20032;-69
2021/12/22 00:41:29;;;;;;;33.57;16.57;;;;;;;-6.24;100.00;102391.75;2107511;28;20036;-69
2021/12/22 00:42:29;;;;;;;35.13;17.47;;;;;;;-6.23;100.00;102392.63;2107706;28;20121;-70
2021/12/22 00:43:30;;;;;;;36.60;17.07;;;;;;;-6.21;100.00;102396.13;2098529;28;20024;-69
2021/12/22 00:44:30;;;;;;;41.17;16.20;;;;;;;-6.21;100.00;102396.13;2098680;28;20020;-69
2021/12/22 00:45:33;;;;;;;38.40;16.40;;;;;;;-6.18;100.00;102393.75;2107538;28;20504;-70
2021/12/22 00:46:33;;;;;;;37.25;16.98;;;;;;;-6.12;100.00;102393.19;2107506;28;20020;-70
2021/12/22 00:47:34;;;;;;;41.57;19.00;;;;;;;-6.09;100.00;102395.88;2098625;28;20121;-70
2021/12/22 00:48:34;;;;;;;38.43;18.13;;;;;;;-6.06;100.00;102396.03;2098635;28;20082;-69
2021/12/22 00:49:35;;;;;;;39.20;17.00;;;;;;;-6.04;100.00;102398.66;2098398;28;20058;-69
2021/12/22 00:50:37;;;;;;;33.80;16.15;;;;;;;-6.04;100.00;102396.09;2098616;28;20012;-69
2021/12/22 00:51:38;;;;;;;33.95;16.75;;;;;;;-6.08;100.00;102402.72;2107474;28;20115;-70
2021/12/22 00:52:38;;;;;;;38.97;18.63;;;;;;;-6.09;100.00;102398.44;2106275;28;20016;-70
2021/12/22 00:53:38;;;;;;;40.20;17.77;;;;;;;-6.11;100.00;102397.47;2098457;28;20019;-70
2021/12/22 00:54:39;;;;;;;35.70;17.73;;;;;;;-6.05;100.00;102392.72;2098554;28;20641;-69
2021/12/22 00:55:39;;;;;;;41.33;19.00;;;;;;;-5.50;100.00;102403.88;2107443;28;20063;-70
2021/12/22 00:56:39;;;;;;;44.90;19.90;;;;;;;-5.59;100.00;102398.31;2107519;28;20406;-70
2021/12/22 00:57:40;;;;;;;39.23;18.00;;;;;;;-5.72;100.00;102392.63;2107415;28;20023;-70
2021/12/22 00:58:40;;;;;;;35.53;17.30;;;;;;;-5.85;100.00;102400.44;2107457;28;20507;-69
2021/12/22 00:59:41;;;;;;;41.87;18.10;;;;;;;-5.92;100.00;102394.16;2107373;28;20111;-69
2021/12/22 01:00:42;;;;;;;;;;;;;;;-5.98;100.00;102398.94;2107852;28;20020;-69
2021/12/22 01:01:42;;;;;;;33.50;15.00;;;;;;;-6.03;100.00;102390.25;2098310;28;19915;-69
2021/12/22 01:02:43;;;;;;;32.43;14.27;;;;;;;-6.05;100.00;102387.63;2098486;28;20079;-69
2021/12/22 01:03:44;;;;;;;;;;;;;;;-6.06;100.00;102395.19;2107841;28;20103;-69
2021/12/22 01:04:44;;;;;;;30.63;15.15;;;;;;;-6.05;100.00;102396.91;2107416;28;20323;-69
2021/12/22 01:05:45;;;;;;;39.10;16.20;;;;;;;-6.04;100.00;102397.00;2107351;28;20381;-69
2021/12/22 01:06:46;;;;;;;40.65;18.00;;;;;;;-6.06;100.00;102396.03;2098378;28;20070;-70
2021/12/22 01:07:47;;;;;;;37.78;16.38;;;;;;;-6.09;100.00;102395.88;2098297;28;20032;-70
2021/12/22 01:08:48;;;;;;;32.25;16.73;;;;;;;-6.05;100.00;102390.16;2098288;28;20024;-69
2021/12/22 01:09:48;;;;;;;38.47;18.40;;;;;;;-6.04;100.00;102397.00;2098414;28;20059;-69
2021/12/22 01:10:49;;;;;;;35.67;17.10;;;;;;;-6.05;100.00;102392.72;2107426;28;20108;-69
2021/12/22 01:11:50;;;;;;;34.30;17.15;;;;;;;-6.06;100.00;102397.72;2107294;28;20100;-71
2021/12/22 01:12:53;;;;;;;42.03;17.48;;;;;;;-6.10;100.00;102396.66;2107299;28;20627;-69
2021/12/22 01:13:53;;;;;;;35.83;18.05;;;;;;;-6.14;100.00;102402.38;2098203;28;20029;-70
2021/12/22 01:14:54;;;;;;;35.33;15.97;;;;;;;-6.14;100.00;102402.38;2098305;28;20103;-70
2021/12/22 01:15:54;;;;;;;41.37;18.43;;;;;;;-6.14;100.00;102403.28;2106682;28;20280;-69
2021/12/22 01:17:00;;;;;;;38.20;16.10;;;;;;;-6.13;100.00;102401.63;2106704;28;20020;-69
2021/12/22 01:18:10;;;;;;;37.80;16.60;;;;;;;-6.13;100.00;102396.53;2107279;28;20110;-70
2021/12/22 01:19:14;;;;;;;32.50;15.82;;;;;;;-6.13;100.00;102394.84;2107241;28;20031;-70
2021/12/22 01:20:26;;;;;;;40.70;18.00;;;;;;;-6.13;100.00;102391.44;2098165;28;20524;-69
2021/12/22 01:21:37;;;;;;;;;;;;;;;-6.13;100.00;102391.44;2100294;28;20025;-70
2021/12/22 01:22:48;;;;;;;39.78;15.77;;;;;;;-6.12;100.00;102395.72;2107305;28;19954;-70
2021/12/22 01:24:01;;;;;;;38.57;14.77;;;;;;;-6.12;100.00;102391.50;2107189;28;20029;-69
2021/12/22 01:25:04;;;;;;;38.40;16.52;;;;;;;-6.13;100.00;102394.00;2107222;28;20278;-69
2021/12/22 01:26:05;;;;;;;35.10;16.77;;;;;;;-6.16;100.00;102394.69;2107231;28;20028;-69
2021/12/22 01:27:09;;;;;;;36.50;19.25;;;;;;;-6.16;100.00;102394.69;2107150;28;20055;-69
2021/12/22 01:28:11;;;;;;;40.00;18.02;;;;;;;-6.12;100.00;102383.03;2107177;28;20042;-68
2021/12/22 01:29:14;;;;;;;34.47;17.00;;;;;;;-6.06;100.00;102385.84;2106449;28;20496;-69
2021/12/22 01:30:21;;;;;;;38.45;18.63;;;;;;;-5.98;100.00;102386.22;2106660;28;20028;-69
2021/12/22 01:31:22;;;;;;;37.97;18.05;;;;;;;-5.97;100.00;102383.78;2107097;28;20043;-69
2021/12/22 01:32:24;;;;;;;31.77;17.40;;;;;;;-5.98;100.00;102381.16;2098014;28;20036;-69
2021/12/22 01:33:24;;;;;;;40.20;17.60;;;;;;;-6.02;100.00;102375.00;2098212;28;20493;-69
2021/12/22 01:34:25;;;;;;;40.93;20.17;;;;;;;-6.01;100.00;102379.31;2098153;28;20062;-69
2021/12/22 01:35:29;;;;;;;43.75;18.20;;;;;;;-6.03;100.00;102382.63;2098327;28;20028;-69
2021/12/22 01:36:30;;;;;;;42.33;17.73;;;;;;;-6.03;100.00;102378.34;2107224;28;20043;-68
2021/12/22 01:37:30;;;;;;;36.65;16.98;;;;;;;-6.01;100.00;102371.69;2107129;28;20367;-69
2021/12/22 01:38:31;;;;;;;36.90;17.67;;;;;;;-6.03;100.00;102380.09;2107111;28;20023;-69
2021/12/22 01:39:31;;;;;;;33.00;15.33;;;;;;;-6.07;100.00;102379.03;2107150;28;20168;-69
2021/12/22 01:40:34;;;;;;;35.57;15.27;;;;;;;-6.09;100.00;102383.19;2107283;28;20078;-70
2021/12/22 01:41:34;;;;;;;40.05;17.95;;;;;;;-6.10;100.00;102389.03;2106459;28;20524;-70
2021/12/22 01:42:35;;;;;;;40.50;18.97;;;;;;;-6.08;100.00;102387.47;2106623;28;20023;-69
2021/12/22 01:43:35;;;;;;;35.33;16.98;;;;;;;-6.06;100.00;102388.41;2107146;28;20028;-70
2021/12/22 01:44:59;;;;;;;35.20;16.50;;;;;;;-6.05;100.00;102382.53;2107101;28;20024;-69
2021/12/22 01:49:55;;;;;;;31.27;15.70;;;;;;;-6.01;100.00;102379.31;2107196;28;20076;-70
2021/12/22 01:50:56;;;;;;;34.70;17.10;;;;;;;-6.02;100.00;102380.09;2107083;28;20016;-70
2021/12/22 01:52:02;;;;;;;35.40;16.60;;;;;;;-6.01;100.00;102381.88;2107100;28;20020;-70
2021/12/22 01:53:20;;;;;;;36.80;17.80;;;;;;;-5.96;100.00;102382.09;2106995;28;20023;-69
2021/12/22 01:54:23;;;;;;;34.63;17.05;;;;;;;-5.96;100.00;102382.09;2106925;28;20488;-70
2021/12/22 01:55:35;;;;;;;32.63;15.85;;;;;;;-5.99;100.00;102377.72;2106975;28;20039;-69
2021/12/22 01:56:36;;;;;;;35.08;17.02;;;;;;;-5.99;100.00;102379.41;2107135;28;20496;-69
2021/12/22 01:57:45;;;;;;;38.72;19.65;;;;;;;-5.98;100.00;102376.94;2106999;28;20024;-70
2021/12/22 01:58:49;;;;;;;36.63;16.88;;;;;;;-5.96;100.00;102375.34;2107189;28;20388;-69
2021/12/22 01:59:50;;;;;;;37.20;16.45;;;;;;;-5.92;100.00;102373.81;2107002;28;20378;-69
2021/12/22 02:00:50;;;;;;;40.40;16.43;;;;;;;-5.90;100.00;102376.44;2107042;28;20051;-70
2021/12/22 02:01:51;;;;;;;34.97;16.73;;;;;;;-5.92;100.00;102375.50;2106248;28;20019;-69
2021/12/22 02:02:51;;;;;;;37.28;17.42;;;;;;;-5.92;100.00;102371.28;2106395;28;20039;-69
2021/12/22 02:03:53;;;;;;;35.83;16.53;;;;;;;-5.90;100.00;102381.53;2106592;28;20477;-69
2021/12/22 02:04:53;;;;;;;33.45;18.17;;;;;;;-5.92;100.00;102378.03;2106923;28;20286;-69
2021/12/22 02:05:53;;;;;;;31.57;14.50;;;;;;;-5.95;100.00;102373.69;2106911;28;20485;-70
2021/12/22 02:06:53;;;;;;;35.53;17.10;;;;;;;-5.93;100.00;102377.16;2097950;28;20497;-68
2021/12/22 02:07:57;;;;;;;33.07;16.37;;;;;;;-5.90;100.00;102378.97;2097876;28;20034;-69
2021/12/22 02:08:58;;;;;;;35.10;17.27;;;;;;;-5.84;100.00;102382.72;2106364;28;20032;-70
2021/12/22 02:11:06;;;;;;;40.92;17.90;;;;;;;-5.81;100.00;102389.63;2107126;28;20039;-70
2021/12/22 02:12:10;;;;;;;33.08;16.25;;;;;;;-5.82;100.00;102386.22;2106940;28;20448;-70
2021/12/22 02:13:15;;;;;;;41.50;17.75;;;;;;;-5.84;100.00;102392.03;2106896;28;20431;-69
2021/12/22 02:14:15;;;;;;;33.85;15.30;;;;;;;-5.85;100.00;102391.13;2106813;28;20035;-69
2021/12/22 02:15:16;;;;;;;44.13;16.80;;;;;;;-5.85;100.00;102390.28;2097885;28;20034;-71
2021/12/22 02:16:19;;;;;;;36.75;16.55;;;;;;;-5.85;100.00;102395.38;2097899;28;20571;-70
2021/12/22 02:17:20;;;;;;;32.63;15.82;;;;;;;-5.87;100.00;102386.78;2097890;28;20111;-70
2021/12/22 02:18:21;;;;;;;34.17;16.13;;;;;;;-5.88;100.00;102390.13;2097986;28;20024;-70
2021/12/22 02:19:21;;;;;;;33.10;15.32;;;;;;;-5.91;100.00;102392.50;2106888;28;20051;-69
2021/12/22 02:20:22;;;;;;;34.40;16.03;;;;;;;-5.90;100.00;102396.78;2097810;28;20025;-70
2021/12/22 02:21:25;;;;;;;34.20;16.73;;;;;;;-5.90;100.00;102394.22;2097835;28;20085;-70
2021/12/22 02:22:26;;;;;;;35.28;15.05;;;;;;;-5.93;100.00;102397.50;2106276;28;20069;-69
2021/12/22 02:23:27;;;;;;;35.97;16.80;;;;;;;-5.97;100.00;102396.47;2106675;28;20401;-69
2021/12/22 02:24:27;;;;;;;36.38;16.77;;;;;;;-5.97;100.00;102401.56;2106808;28;20032;-69
2021/12/22 02:25:34;;;;;;;32.67;16.93;;;;;;;-5.95;100.00;102394.88;2106794;28;20028;-70
2021/12/22 02:26:43;;;;;;;32.53;16.25;;;;;;;-5.98;100.00;102398.94;2106775;28;20099;-70
2021/12/22 02:27:52;;;;;;;33.72;16.50;;;;;;;-6.01;100.00;102397.13;2106714;28;20039;-71
2021/12/22 02:29:03;;;;;;;34.20;14.85;;;;;;;-6.03;100.00;102396.16;2106771;28;20135;-70
2021/12/22 02:30:06;;;;;;;;;;;;;;;-6.08;100.00;102390.00;2107166;28;20024;-70
2021/12/22 02:31:06;;;;;;;31.38;13.38;;;;;;;-6.12;100.00;102396.59;2106743;28;19912;-70
2021/12/22 02:33:20;;;;;;;28.85;15.32;;;;;;;-6.12;100.00;102396.59;2106705;28;20032;-70
2021/12/22 02:34:21;;;;;;;35.92;16.05;;;;;;;-6.11;100.00;102392.38;2106605;28;20028;-70
2021/12/22 02:35:39;;;;;;;31.17;14.43;;;;;;;-6.11;100.00;102400.00;2106779;28;20059;-69
2021/12/22 02:36:40;;;;;;;33.85;15.38;;;;;;;-6.11;100.00;102392.38;2106666;28;20119;-69
2021/12/22 02:37:44;;;;;;;29.33;14.40;;;;;;;-6.11;100.00;102392.38;2097561;28;20056;-69
2021/12/22 02:39:04;;;;;;;30.77;14.75;;;;;;;-6.11;100.00;102395.81;2098093;28;20031;-69
2021/12/22 02:40:11;;;;;;;27.23;13.82;;;;;;;-6.08;100.00;102390.00;2106625;28;20067;-69
2021/12/22 02:41:15;;;;;;;33.58;15.68;;;;;;;-6.10;100.00;102391.56;2106643;28;20024;-69
2021/12/22 02:42:20;;;;;;;27.98;14.75;;;;;;;-6.10;100.00;102391.56;2106584;28;20016;-69
2021/12/22 02:43:23;;;;;;;30.48;15.77;;;;;;;-6.11;100.00;102393.28;2097521;28;20074;-69
2021/12/22 02:44:23;;;;;;;30.75;17.00;;;;;;;-6.05;100.00;102391.81;2097995;28;20103;-69
2021/12/22 02:45:23;;;;;;;33.47;16.20;;;;;;;-6.10;100.00;102389.03;2106490;28;20077;-69
2021/12/22 02:46:30;;;;;;;32.40;15.50;;;;;;;-6.15;100.00;102395.56;2106619;28;20027;-69
2021/12/22 02:47:30;;;;;;;30.75;15.30;;;;;;;-6.18;100.00;102387.78;2097584;28;20027;-69
2021/12/22 02:48:31;;;;;;;33.63;16.23;;;;;;;-6.19;100.00;102391.13;2097614;28;20485;-69
2021/12/22 02:49:31;;;;;;;32.28;14.65;;;;;;;-6.19;100.00;102388.56;2106650;28;20153;-69
2021/12/22 02:50:36;;;;;;;30.27;13.90;;;;;;;-6.18;100.00;102393.75;2106614;28;20024;-69
2021/12/22 02:51:37;;;;;;;32.58;14.95;;;;;;;-6.22;100.00;102390.16;2097486;28;20028;-70
2021/12/22 02:52:55;;;;;;;31.08;14.63;;;;;;;-6.24;100.00;102386.66;2097710;28;20477;-69
2021/12/22 02:55:04;;;;;;;33.90;14.63;;;;;;;-6.24;100.00;102385.78;2098751;28;20105;-69
2021/12/22 02:56:25;;;;;;;29.88;14.00;;;;;;;-6.25;100.00;102384.94;2106549;28;20020;-70
2021/12/22 02:57:34;;;;;;;30.42;13.63;;;;;;;-6.23;100.00;102382.47;2106501;28;20070;-70
2021/12/22 02:58:53;;;;;;;28.67;14.30;;;;;;;-6.23;100.00;102380.78;2106538;28;20024;-70
2021/12/22 03:00:24;;;;;;;31.40;15.18;;;;;;;-6.26;100.00;102380.63;2106645;28;20024;-69
2021/12/22 03:02:32;;;;;;;31.20;14.00;;;;;;;-6.26;100.00;102370.44;2106638;28;20081;-69
2021/12/22 03:04:57;;;;;;;33.42;14.05;;;;;;;-6.24;100.00;102370.53;2099154;28;20377;-69
2021/12/22 03:06:00;;;;;;;35.22;14.65;;;;;;;-6.24;100.00;102373.06;2097538;28;20028;-70
2021/12/22 03:07:06;;;;;;;33.30;16.00;;;;;;;-6.27;100.00;102376.34;2097939;28;20028;-70
2021/12/22 03:08:06;;;;;;;29.05;14.25;;;;;;;-6.25;100.00;102374.75;2106610;28;20408;-69
2021/12/22 03:09:37;;;;;;;35.30;15.33;;;;;;;-6.25;100.00;102379.84;2106510;28;20024;-70
2021/12/22 03:10:37;;;;;;;28.98;13.43;;;;;;;-6.20;100.00;102377.53;2105906;28;20028;-69
2021/12/22 03:11:37;;;;;;;31.03;13.77;;;;;;;-6.18;100.00;102380.16;2106120;28;20081;-70
2021/12/22 03:12:39;;;;;;;29.17;13.17;;;;;;;-6.13;100.00;102388.91;2106642;28;20425;-69
2021/12/22 03:13:40;;;;;;;31.48;13.05;;;;;;;-6.13;100.00;102384.69;2106594;28;20047;-70
2021/12/22 03:14:40;;;;;;;30.13;13.97;;;;;;;-6.11;100.00;102387.31;2106526;28;20020;-70
2021/12/22 03:15:41;;;;;;;29.57;14.33;;;;;;;-6.10;100.00;102386.50;2097848;28;20020;-68
2021/12/22 03:16:42;;;;;;;32.53;15.20;;;;;;;-6.11;100.00;102394.94;2099333;28;20024;-69
2021/12/22 03:17:43;;;;;;;33.72;15.32;;;;;;;-6.16;100.00;102393.81;2108396;28;20027;-68
2021/12/22 03:18:44;;;;;;;29.33;14.43;;;;;;;-6.23;100.00;102393.50;2108366;28;20376;-70
2021/12/22 03:19:44;;;;;;;31.67;14.93;;;;;;;-6.27;100.00;102400.91;2108327;28;20023;-69
2021/12/22 03:20:50;;;;;;;31.53;15.30;;;;;;;-6.30;100.00;102391.41;2108296;28;20056;-70
2021/12/22 03:21:58;;;;;;;30.38;14.88;;;;;;;-6.30;100.00;102401.59;2099187;28;20025;-69
2021/12/22 03:22:58;;;;;;;30.25;14.95;;;;;;;-6.30;100.00;102404.13;2100293;28;20027;-70
2021/12/22 03:23:58;;;;;;;35.23;15.57;;;;;;;-6.31;100.00;102397.31;2099264;28;20409;-69
2021/12/22 03:24:59;;;;;;;29.87;14.60;;;;;;;-6.36;100.00;102397.06;2099274;28;20055;-69
2021/12/22 03:25:59;;;;;;;29.47;14.33;;;;;;;-6.34;100.00;102394.59;2099217;28;20072;-69
2021/12/22 03:27:02;;;;;;;25.63;14.13;;;;;;;-6.33;100.00;102406.53;2099138;28;20127;-69
2021/12/22 03:28:03;;;;;;;29.30;14.70;;;;;;;-6.29;100.00;102407.56;2108302;28;20035;-69
2021/12/22 03:29:04;;;;;;;;;;;;;;;-6.28;100.00;102399.13;2108644;28;20089;-69
2021/12/22 03:30:05;;;;;;;30.20;13.63;;;;;;;-6.33;100.00;102401.44;2108254;28;20364;-69
2021/12/22 03:31:06;;;;;;;29.95;14.10;;;;;;;-6.39;100.00;102403.66;2108194;28;20077;-70
2021/12/22 03:32:07;;;;;;;28.43;14.50;;;;;;;-6.41;100.00;102400.13;2108236;28;20024;-69
2021/12/22 03:33:07;;;;;;;;;;;;;;;-6.43;100.00;102409.38;2108546;28;20032;-69
2021/12/22 03:34:09;;;;;;;27.60;13.18;;;;;;;-6.47;100.00;102399.03;2108063;28;20229;-69
2021/12/22 03:35:16;;;;;;;24.90;12.75;;;;;;;-6.49;100.00;102400.63;2108179;28;20139;-69
2021/12/22 03:36:16;;;;;;;28.75;14.05;;;;;;;-6.49;100.00;102405.72;2108314;28;20405;-69
2021/12/22 03:37:17;;;;;;;27.45;13.85;;;;;;;-6.51;100.00;102404.75;2107429;28;20102;-70
2021/12/22 03:38:17;;;;;;;27.80;13.23;;;;;;;-6.51;100.00;102407.28;2099101;28;20145;-70
2021/12/22 03:39:17;;;;;;;30.10;14.00;;;;;;;-6.52;100.00;102414.81;2099153;28;20046;-69
2021/12/22 03:40:20;;;;;;;27.77;14.97;;;;;;;-6.54;100.00;102404.56;2107492;28;20093;-69
2021/12/22 03:41:20;;;;;;;30.10;14.15;;;;;;;-6.49;100.00;102413.34;2107609;28;20036;-69
2021/12/22 03:42:20;;;;;;;26.90;13.67;;;;;;;-6.45;100.00;102411.81;2108033;28;20501;-68
2021/12/22 03:43:20;;;;;;;30.17;14.50;;;;;;;-6.42;100.00;102408.56;2098918;28;20105;-70
2021/12/22 03:44:21;;;;;;;29.27;13.63;;;;;;;-6.41;100.00;102407.75;2099012;28;20556;-69
2021/12/22 03:45:21;;;;;;;30.77;15.20;;;;;;;-6.42;100.00;102406.91;2107939;28;20089;-69
2021/12/22 03:46:21;;;;;;;30.57;13.10;;;;;;;-6.50;100.00;102403.09;2108039;28;20546;-69
2021/12/22 03:47:22;;;;;;;31.60;14.17;;;;;;;-6.53;100.00;102405.47;2108013;28;20070;-69
2021/12/22 03:48:24;;;;;;;27.77;13.60;;;;;;;-6.57;100.00;102406.94;2108053;28;20587;-69
2021/12/22 03:49:24;;;;;;;31.10;14.73;;;;;;;-6.60;100.00;102405.13;2098894;28;20028;-69
2021/12/22 03:50:25;;;;;;;31.00;14.50;;;;;;;-6.61;100.00;102399.94;2098943;28;20027;-69
2021/12/22 03:51:28;;;;;;;27.17;15.00;;;;;;;-6.60;100.00;102404.25;2107977;28;20035;-70
2021/12/22 03:52:28;;;;;;;28.80;14.18;;;;;;;-6.60;100.00;102396.66;2107989;28;20028;-69
2021/12/22 03:53:29;;;;;;;35.83;14.20;;;;;;;-6.59;100.00;102393.31;2107910;28;20495;-69
2021/12/22 03:54:29;;;;;;;33.10;14.63;;;;;;;-6.62;100.00;102383.84;2098685;28;20501;-69
2021/12/22 03:55:29;;;;;;;28.67;14.03;;;;;;;-6.64;100.00;102382.88;2098898;28;20114;-69
2021/12/22 03:56:30;;;;;;;29.13;14.27;;;;;;;-6.65;100.00;102386.22;2107139;28;20028;-69
2021/12/22 03:57:30;;;;;;;28.47;13.30;;;;;;;-6.68;100.00;102388.59;2107272;28;20028;-69
2021/12/22 03:58:31;;;;;;;27.50;14.13;;;;;;;-6.68;100.00;102382.66;2107894;28;20119;-68
2021/12/22 03:59:31;;;;;;;26.55;13.68;;;;;;;-6.71;100.00;102383.34;2107876;28;20051;-71
2021/12/22 04:00:31;;;;;;;28.80;13.63;;;;;;;-6.70;100.00;102391.84;2107836;28;20501;-69
2021/12/22 04:01:33;;;;;;;33.63;13.40;;;;;;;-6.72;100.00;102390.09;2107884;28;20074;-68
2021/12/22 04:02:33;;;;;;;28.70;13.52;;;;;;;-6.70;100.00;102394.38;2107962;28;20414;-69
2021/12/22 04:03:36;;;;;;;26.45;14.27;;;;;;;-6.67;100.00;102397.09;2107955;28;20109;-68
2021/12/22 04:04:37;;;;;;;24.85;13.65;;;;;;;-6.62;100.00;102403.28;2107991;28;20017;-69
2021/12/22 04:05:37;;;;;;;25.57;14.00;;;;;;;-6.63;100.00;102402.44;2107983;28;20032;-69
2021/12/22 04:06:38;;;;;;;28.07;14.30;;;;;;;-6.66;100.00;102398.84;2107863;28;20016;-69
2021/12/22 04:07:39;;;;;;;28.98;13.65;;;;;;;-6.68;100.00;102397.91;2107913;28;20020;-69
2021/12/22 04:08:39;;;;;;;28.37;14.33;;;;;;;-6.68;100.00;102397.91;2098827;28;20107;-70
2021/12/22 04:09:39;;;;;;;28.47;14.13;;;;;;;-6.67;100.00;102394.56;2098719;28;20469;-70
2021/12/22 04:10:40;;;;;;;28.07;13.80;;;;;;;-6.67;100.00;102394.56;2107104;28;20020;-69
2021/12/22 04:11:41;;;;;;;27.40;13.80;;;;;;;-6.69;100.00;102393.59;2107279;28;20027;-69
2021/12/22 04:12:41;;;;;;;28.38;13.45;;;;;;;-6.69;100.00;102381.78;2107867;28;20055;-69
2021/12/22 04:13:41;;;;;;;32.93;14.87;;;;;;;-6.62;100.00;102388.06;2107786;28;20464;-69
2021/12/22 04:14:41;;;;;;;34.20;14.93;;;;;;;-6.58;100.00;102389.13;2107792;28;20027;-69
2021/12/22 04:15:42;;;;;;;29.17;13.40;;;;;;;-6.55;100.00;102389.25;2107770;28;20030;-69
2021/12/22 04:16:42;;;;;;;27.10;13.85;;;;;;;-6.54;100.00;102389.34;2107858;28;20027;-69
2021/12/22 04:17:43;;;;;;;31.30;14.37;;;;;;;-6.54;100.00;102385.94;2107848;28;20012;-69
2021/12/22 04:18:43;;;;;;;25.70;14.50;;;;;;;-6.56;100.00;102385.84;2098752;28;20054;-68
2021/12/22 04:19:43;;;;;;;28.73;14.30;;;;;;;-6.56;100.00;102390.94;2098816;28;20024;-69
2021/12/22 04:20:44;;;;;;;25.73;14.27;;;;;;;-6.53;100.00;102392.75;2107021;28;20024;-69
2021/12/22 04:21:44;;;;;;;32.03;14.17;;;;;;;-6.55;100.00;102385.06;2107144;28;20028;-69
2021/12/22 04:22:44;;;;;;;25.57;13.70;;;;;;;-6.54;100.00;102381.72;2107738;28;20451;-69
2021/12/22 04:23:45;;;;;;;29.13;14.90;;;;;;;-6.53;100.00;102383.47;2107676;28;20015;-69
2021/12/22 04:24:45;;;;;;;30.73;14.47;;;;;;;-6.52;100.00;102385.22;2107802;28;20023;-68
2021/12/22 04:25:47;;;;;;;28.50;13.83;;;;;;;-6.54;100.00;102380.84;2107768;28;20037;-68
2021/12/22 04:26:47;;;;;;;25.40;13.65;;;;;;;-6.58;100.00;102382.34;2098289;28;20100;-68
2021/12/22 04:27:50;;;;;;;31.03;13.57;;;;;;;-6.57;100.00;102381.53;2098752;28;20413;-69
2021/12/22 04:28:50;;;;;;;28.58;13.90;;;;;;;-6.56;100.00;102377.34;2107660;28;20472;-69
2021/12/22 04:29:50;;;;;;;31.07;13.67;;;;;;;-6.58;100.00;102369.66;2107678;28;20039;-70
2021/12/22 04:30:51;;;;;;;19.13;11.90;;;;;;;-6.62;100.00;102373.69;2107640;28;20381;-69
2021/12/22 04:31:51;;;;;;;26.77;13.80;;;;;;;-6.66;100.00;102370.91;2107737;28;20016;-70
2021/12/22 04:32:51;;;;;;;25.97;12.23;;;;;;;-6.69;100.00;102363.13;2098600;28;20035;-69
2021/12/22 04:33:51;;;;;;;24.23;11.77;;;;;;;-6.70;100.00;102363.91;2090181;28;20111;-70
2021/12/22 04:34:52;;;;;;;26.67;12.77;;;;;;;-6.69;100.00;102370.72;2098686;28;20095;-69
2021/12/22 04:35:53;;;;;;;26.83;13.90;;;;;;;-6.72;100.00;102367.25;2098637;28;20044;-68
2021/12/22 04:36:53;;;;;;;29.13;13.57;;;;;;;-6.68;100.00;102367.44;2098689;28;20034;-69
2021/12/22 04:37:53;;;;;;;31.27;14.40;;;;;;;-6.69;100.00;102361.47;2107681;28;20210;-69
2021/12/22 04:38:56;;;;;;;29.13;13.07;;;;;;;-6.67;100.00;102361.53;2107577;28;20583;-69
2021/12/22 04:39:56;;;;;;;28.20;13.82;;;;;;;-6.63;100.00;102366.00;2107578;28;20024;-69
2021/12/22 04:40:56;;;;;;;24.77;13.40;;;;;;;-6.58;100.00;102371.31;2107599;28;20027;-68
2021/12/22 04:41:57;;;;;;;29.30;13.30;;;;;;;-6.55;100.00;102364.72;2107647;28;20036;-69
2021/12/22 04:42:57;;;;;;;31.10;13.67;;;;;;;-6.53;100.00;102370.78;2107598;28;20032;-68
2021/12/22 04:43:57;;;;;;;24.77;13.40;;;;;;;-6.51;100.00;102368.28;2107577;28;20122;-69
2021/12/22 04:45:00;;;;;;;27.57;14.20;;;;;;;-6.53;100.00;102365.69;2107683;28;20027;-70
2021/12/22 04:46:00;;;;;;;24.48;13.07;;;;;;;-6.50;100.00;102360.75;2107637;28;20024;-69
2021/12/22 04:47:01;;;;;;;27.07;13.53;;;;;;;-6.50;100.00;102362.44;2098470;28;20024;-69
2021/12/22 04:48:01;;;;;;;31.77;14.30;;;;;;;-6.52;100.00;102366.56;2090317;28;20032;-69
2021/12/22 04:49:04;;;;;;;29.20;14.65;;;;;;;-6.49;100.00;102366.72;2090190;28;20129;-70
2021/12/22 04:50:10;;;;;;;24.83;14.10;;;;;;;-6.49;100.00;102365.06;2098813;28;20530;-70
2021/12/22 04:51:23;;;;;;;28.63;12.88;;;;;;;-6.48;100.00;102365.91;2098365;28;20054;-69